Česky Dansk Deutsch English Español Suomi Français Magyar Italiano Nederlands norsk Polski Português svenska Türkçe

 

Het Weer

Garissa (Kenia)

13:00, 27 juli 2016 (GMT)

NWNNE
WE
SWSSE
Home            
Garissa Meru Lamu Embu Isiolo Wajir Makindu Nanyuki Nyeri Malindi Nairobi ACC/FIC/RCC/MET/COM/ Nairobi/Jomo Kenyatta Airport TWR/APP/NOF/Civil Airlines Nairobi / Wilson Nairobi / Dagoretti Voi Marsabit Nakuru Mombasa Moshi Narok Kilimanjaro Airport Moyale Same

Om een weerknop op uw website of weblog te plaatsen, copieer onderstaande code en plak die in uw pagina. In het eerste vakje staat HTML-code, in het tweede vakje UBB-code.


Add to Google

Details

Wind speed:3 bf, 8 kn, 4.1 m/s, 9.2 miles/h, 14.8 km/h
Wind direction:S, 180°
Visibility:Greater than 10000 m, 10 km, 32800 ft, 6.2 miles
Clouds:Aufgelockert bewölkt at 3100 ft, 945 m
Temperature:33°C, 91°F
Gefühlte Temperatur:32°C, 90°F
Dew-point:15°C, 59°F
Atmospheric pressure:1011 hPa, 758.3 mmHg, 29.85 inHg, 0.998 atm
Relative humidity:33.9 %
METAR:HKGA 271300Z 18008KT 9999 SCT031 33/15 Q1011

Snelkoppelingen

Actuele weersinformatie van de hele wereld. Voeg locaties toe met het plus (+) symbool. Deze snelkoppelingen kunnen worden toegevoegd aan Google.

Lid van de Technetium groep

website free tracking
StatCounter NetStat W3C Validator

15-10-2019 05:54:32
astro.technetium.be money.technetium.be phote.technetium.be tafeltennistafel.technetium.be www.ligfiets.net